createdAt,value
2019-02-26T00:03:40.118Z,2.55
2019-02-26T00:09:01.301Z,2.80
2019-02-26T00:14:20.325Z,2.83
2019-02-26T00:19:39.412Z,2.63
2019-02-26T00:24:58.246Z,2.84
2019-02-26T00:30:18.644Z,2.64
2019-02-26T00:35:39.329Z,2.61
2019-02-26T00:40:59.488Z,2.66
2019-02-26T00:46:18.051Z,2.73
2019-02-26T00:51:36.715Z,2.53
2019-02-26T00:56:59.071Z,2.80
2019-02-26T01:02:15.631Z,3.01
2019-02-26T01:07:34.241Z,2.81
2019-02-26T01:12:52.856Z,2.69
2019-02-26T01:18:11.470Z,2.73
2019-02-26T01:23:30.367Z,2.62
2019-02-26T01:28:51.149Z,2.62
2019-02-26T01:34:11.557Z,2.23
2019-02-26T01:39:29.670Z,2.09
2019-02-26T01:44:48.214Z,2.47
2019-02-26T01:50:11.112Z,2.40
2019-02-26T01:55:29.777Z,2.09
2019-02-26T02:00:48.315Z,2.26
2019-02-26T02:06:10.638Z,1.91
2019-02-26T02:11:30.611Z,2.09
2019-02-26T02:16:47.572Z,2.19
2019-02-26T02:22:06.266Z,2.14
2019-02-26T02:27:27.491Z,2.17
2019-02-26T02:32:50.417Z,2.30
2019-02-26T02:38:05.664Z,2.20
2019-02-26T02:43:24.294Z,2.17
2019-02-26T02:48:42.871Z,2.38
2019-02-26T02:54:01.406Z,2.20
2019-02-26T02:59:20.145Z,2.21
2019-02-26T03:04:38.705Z,2.12
2019-02-26T03:09:58.020Z,2.37
2019-02-26T03:15:21.189Z,2.20
2019-02-26T03:20:40.413Z,1.99
2019-02-26T03:25:59.039Z,2.05
2019-02-26T03:31:17.653Z,1.95
2019-02-26T03:36:40.824Z,1.72
2019-02-26T03:41:58.863Z,1.85
2019-02-26T03:47:18.860Z,1.65
2019-02-26T03:52:37.924Z,1.47
2019-02-26T03:57:59.127Z,1.58
2019-02-26T04:03:17.574Z,1.73
2019-02-26T04:08:36.531Z,1.73
2019-02-26T04:13:56.662Z,1.79
2019-02-26T04:19:15.405Z,1.96
2019-02-26T04:24:37.401Z,1.69
2019-02-26T04:29:57.280Z,1.56
2019-02-26T04:35:19.093Z,1.58
2019-02-26T04:40:43.184Z,1.21
2019-02-26T04:46:14.000Z,1.03
2019-02-26T04:51:34.271Z,0.95
2019-02-26T04:56:52.914Z,0.98
2019-02-26T05:02:11.538Z,1.37
2019-02-26T05:07:30.091Z,1.38
2019-02-26T05:12:48.563Z,1.18
2019-02-26T05:18:07.063Z,0.99
2019-02-26T05:23:26.402Z,0.88
2019-02-26T05:28:47.068Z,0.92
2019-02-26T05:34:07.334Z,0.99
2019-02-26T05:39:28.687Z,0.92
2019-02-26T05:44:46.205Z,0.89
2019-02-26T05:50:12.401Z,0.92
2019-02-26T05:55:28.295Z,0.93
2019-02-26T06:00:47.764Z,0.42
2019-02-26T06:06:06.255Z,0.43
2019-02-26T06:11:28.330Z,0.44
2019-02-26T06:16:46.372Z,0.70
2019-02-26T06:22:05.510Z,0.73
2019-02-26T06:27:25.129Z,0.62
2019-02-26T06:32:46.029Z,0.59
2019-02-26T06:38:09.321Z,0.94
2019-02-26T06:43:30.809Z,0.76
2019-02-26T06:48:49.059Z,0.95
2019-02-26T06:54:07.597Z,0.84
2019-02-26T06:59:32.477Z,0.97
2019-02-26T07:04:50.693Z,1.19
2019-02-26T07:10:18.358Z,1.43
2019-02-26T07:15:35.840Z,2.49
2019-02-26T07:20:55.962Z,4.91
2019-02-26T07:26:16.074Z,7.58
2019-02-26T07:31:35.516Z,8.68
2019-02-26T07:36:54.139Z,9.79
2019-02-26T07:42:14.682Z,11.41
2019-02-26T07:47:35.752Z,12.32
2019-02-26T07:52:55.257Z,11.78
2019-02-26T07:58:15.469Z,12.18
2019-02-26T08:03:33.977Z,13.30
2019-02-26T08:08:52.456Z,13.36
2019-02-26T08:14:11.101Z,10.70
2019-02-26T08:19:29.965Z,10.27
2019-02-26T08:24:50.461Z,10.81
2019-02-26T08:30:18.612Z,13.96
2019-02-26T08:35:36.882Z,14.23
2019-02-26T08:40:55.506Z,12.88
2019-02-26T08:46:16.573Z,13.77
2019-02-26T08:51:34.813Z,14.90
2019-02-26T08:56:53.364Z,16.95
2019-02-26T09:02:12.282Z,16.77
2019-02-26T09:07:30.851Z,16.60
2019-02-26T09:12:51.688Z,16.30
2019-02-26T09:18:09.696Z,16.10
2019-02-26T09:23:30.452Z,15.72
2019-02-26T09:28:50.089Z,16.25
2019-02-26T09:34:08.993Z,16.26
2019-02-26T09:39:29.273Z,17.16
2019-02-26T09:44:48.143Z,16.56
2019-02-26T09:50:12.928Z,18.66
2019-02-26T09:55:31.515Z,17.69
2019-02-26T10:00:51.130Z,17.28
2019-02-26T10:06:11.357Z,17.59
2019-02-26T10:11:30.754Z,17.32
2019-02-26T10:16:51.789Z,16.83
2019-02-26T10:22:13.508Z,16.76
2019-02-26T10:27:33.605Z,16.76
2019-02-26T10:32:50.804Z,16.99
2019-02-26T10:38:11.408Z,16.83
2019-02-26T10:43:29.787Z,17.20
2019-02-26T10:48:50.319Z,17.44
2019-02-26T10:54:12.183Z,17.41
2019-02-26T10:59:29.065Z,17.44
2019-02-26T11:04:52.105Z,17.09
2019-02-26T11:10:11.963Z,17.32
2019-02-26T11:15:33.927Z,17.52
2019-02-26T11:20:55.211Z,17.19
2019-02-26T11:26:13.173Z,17.10
2019-02-26T11:31:32.207Z,17.36
2019-02-26T11:36:50.843Z,17.47
2019-02-26T11:42:10.492Z,17.76
2019-02-26T11:47:29.105Z,17.97
2019-02-26T11:52:51.628Z,17.67
2019-02-26T11:58:10.817Z,17.79
2019-02-26T12:03:31.150Z,17.95
2019-02-26T12:08:50.052Z,17.95
2019-02-26T12:14:10.745Z,17.95
2019-02-26T12:19:31.175Z,17.90
2019-02-26T12:24:55.974Z,18.02
2019-02-26T12:30:20.678Z,18.07
2019-02-26T12:35:43.535Z,18.12
2019-02-26T12:41:01.483Z,18.21
2019-02-26T12:46:21.739Z,18.19
2019-02-26T12:51:40.413Z,18.18
2019-02-26T12:57:00.642Z,18.50
2019-02-26T13:02:20.643Z,18.28
2019-02-26T13:07:39.658Z,17.99
2019-02-26T13:13:01.438Z,18.57
2019-02-26T13:18:18.484Z,18.23
2019-02-26T13:23:37.042Z,18.43
2019-02-26T13:29:00.121Z,18.46
2019-02-26T13:34:16.021Z,18.11
2019-02-26T13:39:38.568Z,18.19
2019-02-26T13:44:54.970Z,18.77
2019-02-26T13:50:22.423Z,18.89
2019-02-26T13:55:41.043Z,19.13
2019-02-26T14:00:59.614Z,19.14
2019-02-26T14:06:18.567Z,18.31
2019-02-26T14:11:37.164Z,18.64
2019-02-26T14:16:55.709Z,18.52
2019-02-26T14:22:14.243Z,18.55
2019-02-26T14:27:32.749Z,18.19
2019-02-26T14:32:51.443Z,18.74
2019-02-26T14:38:09.981Z,18.59
2019-02-26T14:43:28.542Z,18.61
2019-02-26T14:48:50.211Z,18.79
2019-02-26T14:54:08.823Z,18.86
2019-02-26T14:59:27.399Z,18.86
2019-02-26T15:04:46.255Z,18.51
2019-02-26T15:10:07.683Z,18.41
2019-02-26T15:15:28.108Z,18.48
2019-02-26T15:20:46.727Z,18.22
2019-02-26T15:26:05.364Z,18.32
2019-02-26T15:31:23.907Z,18.14
2019-02-26T15:36:46.707Z,18.19
2019-02-26T15:42:05.395Z,18.00
2019-02-26T15:47:24.119Z,17.92
2019-02-26T15:52:42.743Z,17.96
2019-02-26T15:58:04.349Z,17.72
2019-02-26T16:03:22.183Z,17.60
2019-02-26T16:08:41.276Z,17.33
2019-02-26T16:14:01.256Z,17.31
2019-02-26T16:19:19.851Z,17.13
2019-02-26T16:24:38.631Z,17.14
2019-02-26T16:29:57.278Z,16.84
2019-02-26T16:35:17.490Z,16.89
2019-02-26T16:40:38.294Z,16.22
2019-02-26T16:45:57.091Z,15.84
2019-02-26T16:51:16.625Z,15.63
2019-02-26T16:56:37.512Z,15.25
2019-02-26T17:01:56.233Z,14.77
2019-02-26T17:07:14.846Z,14.43
2019-02-26T17:12:33.562Z,13.95
2019-02-26T17:17:52.402Z,13.34
2019-02-26T17:23:13.556Z,13.52
2019-02-26T17:28:31.965Z,13.37
2019-02-26T17:33:50.608Z,12.77
2019-02-26T17:39:09.512Z,12.34
2019-02-26T17:44:28.064Z,11.98
2019-02-26T17:49:46.619Z,11.77
2019-02-26T17:55:09.492Z,11.54
2019-02-26T18:00:29.672Z,11.29
2019-02-26T18:05:51.478Z,11.03
2019-02-26T18:11:08.621Z,11.02
2019-02-26T18:16:27.454Z,10.73
2019-02-26T18:22:13.189Z,10.62
2019-02-26T18:27:31.723Z,10.31
2019-02-26T18:32:53.184Z,10.05
2019-02-26T18:38:10.883Z,9.78
2019-02-26T18:43:29.679Z,9.54
2019-02-26T18:48:48.704Z,9.28
2019-02-26T18:54:07.770Z,9.27
2019-02-26T18:59:26.326Z,8.76
2019-02-26T19:04:48.267Z,8.76
2019-02-26T19:10:08.709Z,8.50
2019-02-26T19:15:32.362Z,8.38
2019-02-26T19:20:50.906Z,8.25
2019-02-26T19:26:13.488Z,7.90
2019-02-26T19:31:32.888Z,7.75
2019-02-26T19:36:51.459Z,7.83
2019-02-26T19:42:10.080Z,7.42
2019-02-26T19:47:33.673Z,7.33
2019-02-26T19:52:57.047Z,7.17
2019-02-26T19:58:12.767Z,7.26
2019-02-26T20:03:39.544Z,6.83
2019-02-26T20:08:51.805Z,6.58
2019-02-26T20:14:11.566Z,6.43
2019-02-26T20:19:31.933Z,6.19
2019-02-26T20:24:50.984Z,6.18
2019-02-26T20:30:12.398Z,5.97
2019-02-26T20:35:31.835Z,5.72
2019-02-26T20:40:50.449Z,5.54
2019-02-26T20:46:09.068Z,5.41
2019-02-26T20:51:27.722Z,5.69
2019-02-26T20:56:46.547Z,5.49
2019-02-26T21:02:05.469Z,5.27
2019-02-26T21:07:27.204Z,5.24
2019-02-26T21:12:45.941Z,4.91
2019-02-26T21:18:04.610Z,4.77
2019-02-26T21:23:27.481Z,4.73
2019-02-26T21:28:43.839Z,4.47
2019-02-26T21:34:03.879Z,4.26
2019-02-26T21:39:22.760Z,4.29
2019-02-26T21:44:41.855Z,4.14
2019-02-26T21:50:01.234Z,3.98
2019-02-26T21:55:19.784Z,3.95
2019-02-26T22:00:39.001Z,3.74
2019-02-26T22:06:05.030Z,3.77
2019-02-26T22:11:20.192Z,3.64
2019-02-26T22:16:43.072Z,3.35
2019-02-26T22:22:00.966Z,3.45
2019-02-26T22:27:19.704Z,3.84
2019-02-26T22:32:43.445Z,3.62
2019-02-26T22:38:02.231Z,3.37
2019-02-26T22:43:20.784Z,3.35
2019-02-26T22:48:39.781Z,3.32
2019-02-26T22:53:58.334Z,3.23
2019-02-26T22:59:17.036Z,2.86
2019-02-26T23:04:35.677Z,2.90
2019-02-26T23:09:54.282Z,2.95
2019-02-26T23:15:13.205Z,2.72
2019-02-26T23:20:32.074Z,2.73
2019-02-26T23:25:50.691Z,2.81
2019-02-26T23:31:09.366Z,2.63
2019-02-26T23:36:28.604Z,2.39
2019-02-26T23:41:47.282Z,2.57
2019-02-26T23:47:05.988Z,2.37
2019-02-26T23:52:24.969Z,2.39
2019-02-26T23:57:44.814Z,2.11
